Weather at CHS Lockport Heliport

Public forecast

Using degrees Fahrenheit for public forecast. Weather courtesy of forecast.io.

Closest aviation weather report (METAR) to CHS Lockport Heliport

Closest report is Niagara Falls International Airport, 10.7 nm (19.9 km) WSW.

2024/05/30 22:53 (retrieved 20 minutes ago)

KIAG 302253Z 33008KT 10SM CLR 19/00 A3014 RMK AO2 SLP209 T01890000

Closest aviation forecast (TAF) to CHS Lockport Heliport

Closest forecast is Niagara Falls International Airport, 10.7 nm (19.9 km) WSW.

2024/05/30 18:30 (retrieved 5 hours ago)

TAF KIAG 301729Z 3018/3118 34012KT P6SM SKC FM302200 33007KT P6SM SKC FM310200 25004KT P6SM SKC FM311600 28006KT P6SM SKC